Titan — WDG3294 — position and weather

sailwx.info

Track history (hours):
 
Tides and Currents Weather Stations Pressure Air Temp Water Temp Dewpoint Dewpoint Depression Visibility Wind Speed Wind Dir Waves Ship Positions

Titan

More information available from US FCC via Universal Licensing System and Coast Guard Vessel Documentation Center.

Last reported at 2014-Aug-02 06:31 UTC. Time now 2014-Sep-01 18:45 UTC.
Position N 41°26' W 069°39'.
Warning: this ship's position is 30 days out of date.

; draft 4 m.

Type: Other ship. MMSI: 367524560.

Date/timePositionNaut miles runAvg speedWind from/ knotsBaromVisibWave heightAir tempDewpointWater temp
2014-Aug-02 06:31N 41°26' W 069°39'11 9.8
2014-Aug-02 05:24N 41°24' W 069°53'8 9.7
2014-Aug-02 04:32N 41°27' W 070°04'1010.0
2014-Aug-02 03:33N 41°27' W 070°17'9 9.2
2014-Aug-02 02:33N 41°28' W 070°29'8 8.2
2014-Aug-02 01:33N 41°29' W 070°40'8 8.3
2014-Aug-02 00:33N 41°26' W 070°51'7 7.4
2014-Aug-01 23:33N 41°34' W 070°53'5 0.3
2014-Aug-01 05:14N 41°38' W 070°55'7 0.5
2014-Jul-31 15:33N 41°32' W 070°52'6 6.2
2014-Jul-31 14:33N 41°27' W 070°47'8 8.3
2014-Jul-31 13:33N 41°29' W 070°36'9 9.3
2014-Jul-31 12:33N 41°28' W 070°24'10 9.5
2014-Jul-31 11:32N 41°27' W 070°11'10 9.8
2014-Jul-31 10:32N 41°26' W 069°58'9 9.5
2014-Jul-31 09:33N 41°26' W 069°46'9 9.5
2014-Jul-31 08:33N 41°27' W 069°33'37 8.5
2014-Jul-31 04:14N 41°33' W 068°45'6 8.0
2014-Jul-31 03:30N 41°34' W 068°37'8 8.0
2014-Jul-31 02:33N 41°36' W 068°27'11 9.0
2014-Jul-31 01:21N 41°37' W 068°13'7 9.3
2014-Jul-31 00:33N 41°39' W 068°03'74 3.5
2014-Jul-30 03:20N 41°26' W 069°41'810.2
2014-Jul-30 02:33N 41°25' W 069°51'20 9.9
2014-Jul-30 00:32N 41°27' W 070°18'12 8.6
2014-Jul-29 23:09N 41°29' W 070°33'4 7.2
2014-Jul-29 22:34N 41°29' W 070°39'8 7.0
2014-Jul-29 21:27N 41°26' W 070°48'6 6.9
2014-Jul-29 20:33N 41°31' W 070°52'  
2014-Jul-27 04:19N 41°38' W 070°55'0 0.0
2014-Jul-27 01:15N 41°38' W 070°55'0 0.0
2014-Jul-25 09:17N 41°38' W 070°55'  
Track history (hours):
 
Tides and Currents Weather Stations Pressure Air Temp Water Temp Dewpoint Dewpoint Depression Visibility Wind Speed Wind Dir Waves Ship Positions

Titan

More information available from US FCC via Universal Licensing System and Coast Guard Vessel Documentation Center.

Last reported at 2014-Aug-02 06:31 UTC. Time now 2014-Sep-01 18:45 UTC.
Position N 41°26' W 069°39'.
Warning: this ship's position is 30 days out of date.

; draft 4 m.

Type: Other ship. MMSI: 367524560.

Date/timePositionNaut miles runAvg speedWind from/ knotsBaromVisibWave heightAir tempDewpointWater temp
2014-Aug-02 06:31N 41°26' W 069°39'11 9.8
2014-Aug-02 05:24N 41°24' W 069°53'8 9.7
2014-Aug-02 04:32N 41°27' W 070°04'1010.0
2014-Aug-02 03:33N 41°27' W 070°17'9 9.2
2014-Aug-02 02:33N 41°28' W 070°29'8 8.2
2014-Aug-02 01:33N 41°29' W 070°40'8 8.3
2014-Aug-02 00:33N 41°26' W 070°51'7 7.4
2014-Aug-01 23:33N 41°34' W 070°53'5 0.3
2014-Aug-01 05:14N 41°38' W 070°55'7 0.5
2014-Jul-31 15:33N 41°32' W 070°52'6 6.2
2014-Jul-31 14:33N 41°27' W 070°47'8 8.3
2014-Jul-31 13:33N 41°29' W 070°36'9 9.3
2014-Jul-31 12:33N 41°28' W 070°24'10 9.5
2014-Jul-31 11:32N 41°27' W 070°11'10 9.8
2014-Jul-31 10:32N 41°26' W 069°58'9 9.5
2014-Jul-31 09:33N 41°26' W 069°46'9 9.5
2014-Jul-31 08:33N 41°27' W 069°33'37 8.5
2014-Jul-31 04:14N 41°33' W 068°45'6 8.0
2014-Jul-31 03:30N 41°34' W 068°37'8 8.0
2014-Jul-31 02:33N 41°36' W 068°27'11 9.0
2014-Jul-31 01:21N 41°37' W 068°13'7 9.3
2014-Jul-31 00:33N 41°39' W 068°03'74 3.5
2014-Jul-30 03:20N 41°26' W 069°41'810.2
2014-Jul-30 02:33N 41°25' W 069°51'20 9.9
2014-Jul-30 00:32N 41°27' W 070°18'12 8.6
2014-Jul-29 23:09N 41°29' W 070°33'4 7.2
2014-Jul-29 22:34N 41°29' W 070°39'8 7.0
2014-Jul-29 21:27N 41°26' W 070°48'6 6.9
2014-Jul-29 20:33N 41°31' W 070°52'  
2014-Jul-27 04:19N 41°38' W 070°55'0 0.0
2014-Jul-27 01:15N 41°38' W 070°55'0 0.0
2014-Jul-25 09:17N 41°38' W 070°55'  

Dump ship's entire track history